createdAt,value
2019-05-20T00:00:57.139Z,13.3
2019-05-20T00:05:59.725Z,13.3
2019-05-20T00:11:02.066Z,13.2
2019-05-20T00:16:04.493Z,13.2
2019-05-20T00:21:06.921Z,13.1
2019-05-20T00:26:09.376Z,13
2019-05-20T00:31:11.824Z,12.9
2019-05-20T00:36:14.297Z,12.9
2019-05-20T00:41:16.667Z,12.9
2019-05-20T00:46:19.133Z,12.8
2019-05-20T00:51:21.610Z,12.8
2019-05-20T00:56:23.993Z,12.8
2019-05-20T01:01:26.455Z,12.9
2019-05-20T01:11:31.298Z,12.9
2019-05-20T01:16:33.736Z,12.9
2019-05-20T01:21:36.190Z,13
2019-05-20T01:26:38.630Z,13
2019-05-20T01:31:41.084Z,13
2019-05-20T01:36:43.512Z,13.1
2019-05-20T01:41:45.939Z,13
2019-05-20T01:46:48.403Z,13
2019-05-20T01:51:50.821Z,12.9
2019-05-20T01:56:53.264Z,12.9
2019-05-20T02:01:55.696Z,12.9
2019-05-20T02:06:58.162Z,12.9
2019-05-20T02:12:00.573Z,12.9
2019-05-20T02:17:03.025Z,12.9
2019-05-20T02:22:05.483Z,12.9
2019-05-20T02:27:07.978Z,12.9
2019-05-20T02:32:10.358Z,12.8
2019-05-20T02:37:12.823Z,12.9
2019-05-20T02:42:15.240Z,12.8
2019-05-20T02:47:17.673Z,12.7
2019-05-20T02:52:20.172Z,12.7
2019-05-20T02:57:22.778Z,12.6
2019-05-20T03:02:25.015Z,12.6
2019-05-20T03:07:27.424Z,12.5
2019-05-20T03:12:29.885Z,12.5
2019-05-20T03:17:32.318Z,12.4
2019-05-20T03:22:34.759Z,12.3
2019-05-20T03:27:37.190Z,12.2
2019-05-20T03:32:39.647Z,12.1
2019-05-20T03:37:42.069Z,12.1
2019-05-20T03:42:44.516Z,12
2019-05-20T03:47:46.951Z,12.1
2019-05-20T03:52:49.418Z,12.1
2019-05-20T03:57:51.845Z,12.1
2019-05-20T04:02:54.294Z,12.2
2019-05-20T04:07:56.746Z,12.3
2019-05-20T04:12:59.149Z,12.3
2019-05-20T04:18:01.612Z,12.4
2019-05-20T04:23:04.029Z,12.4
2019-05-20T04:28:06.579Z,12.5
2019-05-20T04:33:08.984Z,12.6
2019-05-20T04:38:11.387Z,12.6
2019-05-20T04:43:13.922Z,12.7
2019-05-20T04:48:16.263Z,12.7
2019-05-20T04:53:18.731Z,12.8
2019-05-20T04:58:21.162Z,12.9
2019-05-20T05:03:23.682Z,13
2019-05-20T05:08:26.028Z,13
2019-05-20T05:13:28.521Z,13.1
2019-05-20T05:18:30.887Z,13.2
2019-05-20T05:23:33.341Z,13.2
2019-05-20T05:28:35.783Z,13.3
2019-05-20T05:33:38.370Z,13.3
2019-05-20T05:38:40.690Z,13.3
2019-05-20T05:43:43.179Z,13.4
2019-05-20T05:48:45.516Z,13.5
2019-05-20T05:53:47.975Z,13.7
2019-05-20T05:58:50.417Z,13.8
2019-05-20T06:03:52.858Z,14
2019-05-20T06:08:55.289Z,14.2
2019-05-20T06:13:57.805Z,14.4
2019-05-20T06:19:00.221Z,14.4
2019-05-20T06:24:02.615Z,14.4
2019-05-20T06:29:05.060Z,14.4
2019-05-20T06:34:07.511Z,14.5
2019-05-20T06:39:09.945Z,14.7
2019-05-20T06:44:12.420Z,15
2019-05-20T06:49:14.838Z,15.3
2019-05-20T06:54:17.281Z,15.5
2019-05-20T06:59:19.720Z,15.6
2019-05-20T07:04:22.164Z,15.7
2019-05-20T07:09:24.608Z,15.8
2019-05-20T07:19:29.488Z,15.9
2019-05-20T07:24:31.906Z,15.9
2019-05-20T07:29:34.617Z,15.9
2019-05-20T07:34:36.906Z,15.9
2019-05-20T07:39:39.215Z,15.9
2019-05-20T07:44:41.662Z,15.9
2019-05-20T07:49:44.115Z,15.9
2019-05-20T07:54:46.555Z,15.9
2019-05-20T07:59:48.980Z,16.1
2019-05-20T08:04:51.505Z,16.3
2019-05-20T08:09:53.883Z,16.4
2019-05-20T08:14:56.317Z,16.4
2019-05-20T08:19:58.739Z,16.4
2019-05-20T08:25:01.202Z,16.4
2019-05-20T08:30:03.827Z,16.4
2019-05-20T08:35:06.218Z,16.4
2019-05-20T08:40:08.522Z,16.4
2019-05-20T08:45:10.979Z,16.4
2019-05-20T08:50:16.049Z,16.4
2019-05-20T08:55:15.911Z,16.3
2019-05-20T09:00:23.182Z,16.3
2019-05-20T09:05:20.718Z,16.4
2019-05-20T09:10:23.180Z,16.5
2019-05-20T09:15:25.663Z,16.7
2019-05-20T09:20:28.056Z,16.8
2019-05-20T09:25:30.491Z,16.9
2019-05-20T09:30:32.923Z,17
2019-05-20T09:35:35.370Z,17
2019-05-20T09:40:37.829Z,16.9
2019-05-20T09:45:40.282Z,16.8
2019-05-20T09:50:42.683Z,16.8
2019-05-20T09:55:45.211Z,16.7
2019-05-20T10:00:47.608Z,16.8
2019-05-20T10:05:50.062Z,16.7
2019-05-20T10:10:52.465Z,16.6
2019-05-20T10:15:54.887Z,16.7
2019-05-20T10:20:57.454Z,16.7
2019-05-20T10:25:59.782Z,16.7
2019-05-20T10:31:02.253Z,16.7
2019-05-20T10:36:04.666Z,16.7
2019-05-20T10:41:07.093Z,16.7
2019-05-20T10:46:09.533Z,16.8
2019-05-20T10:51:12.049Z,16.8
2019-05-20T10:56:14.681Z,16.7
2019-05-20T11:01:16.904Z,16.7
2019-05-20T11:06:19.309Z,16.7
2019-05-20T11:11:21.792Z,16.7
2019-05-20T11:16:24.199Z,16.6
2019-05-20T11:21:26.630Z,16.6
2019-05-20T11:26:29.067Z,16.5
2019-05-20T11:31:31.509Z,16.4
2019-05-20T11:36:33.938Z,16.2
2019-05-20T11:41:53.625Z,16.1
2019-05-20T11:46:38.843Z,15.9
2019-05-20T11:51:41.272Z,15.9
2019-05-20T11:56:43.727Z,15.8
2019-05-20T12:01:46.141Z,15.7
2019-05-20T12:06:48.659Z,15.7
2019-05-20T12:11:51.188Z,15.7
2019-05-20T12:16:53.463Z,15.7
2019-05-20T12:21:55.928Z,15.7
2019-05-20T12:26:58.404Z,15.7
2019-05-20T12:32:03.416Z,15.7
2019-05-20T12:37:03.261Z,15.7
2019-05-20T12:42:05.687Z,15.8
2019-05-20T12:47:08.387Z,15.9
2019-05-20T12:52:10.625Z,15.9
2019-05-20T12:57:13.028Z,15.8
2019-05-20T13:02:17.355Z,15.8
2019-05-20T13:07:17.867Z,15.7
2019-05-20T13:12:20.318Z,15.7
2019-05-20T13:17:22.846Z,15.8
2019-05-20T13:22:25.194Z,16.1
2019-05-20T13:27:27.650Z,16.2
2019-05-20T13:32:30.082Z,16.3
2019-05-20T13:37:32.561Z,16.3
2019-05-20T13:42:34.970Z,16.3
2019-05-20T13:47:37.400Z,16.3
2019-05-20T13:52:39.849Z,16.3
2019-05-20T13:57:42.347Z,16.2
2019-05-20T14:02:44.858Z,16
2019-05-20T14:07:47.178Z,15.9
2019-05-20T14:12:49.704Z,15.8
2019-05-20T14:17:52.196Z,15.7
2019-05-20T14:22:54.548Z,15.6
2019-05-20T14:27:56.960Z,15.5
2019-05-20T14:32:59.383Z,15.4
2019-05-20T14:43:04.251Z,15.3
2019-05-20T14:48:07.040Z,15.2
2019-05-20T14:53:09.183Z,15.2
2019-05-20T14:58:11.576Z,15.4
2019-05-20T15:03:14.028Z,15.5
2019-05-20T15:08:16.449Z,15.9
2019-05-20T15:13:18.941Z,16.7
2019-05-20T15:18:21.350Z,17.1
2019-05-20T15:23:23.836Z,17.2
2019-05-20T15:28:26.254Z,17.1
2019-05-20T15:33:28.724Z,16.9
2019-05-20T15:38:31.118Z,16.7
2019-05-20T15:43:33.558Z,16.4
2019-05-20T15:48:36.034Z,16.3
2019-05-20T15:53:38.409Z,16.2
2019-05-20T15:58:40.866Z,16.3
2019-05-20T16:03:43.296Z,16.6
2019-05-20T16:08:45.789Z,16.9
2019-05-20T16:13:48.187Z,16.9
2019-05-20T16:18:50.622Z,16.7
2019-05-20T16:23:53.095Z,16.5
2019-05-20T16:28:55.519Z,16.4
2019-05-20T16:33:59.560Z,16.3
2019-05-20T16:39:00.438Z,16.3
2019-05-20T16:44:02.878Z,16.3
2019-05-20T16:49:05.349Z,16.2
2019-05-20T16:54:07.763Z,16.1
2019-05-20T16:59:10.161Z,16
2019-05-20T17:04:12.604Z,15.7
2019-05-20T17:09:15.025Z,15.5
2019-05-20T17:14:17.497Z,15.3
2019-05-20T17:19:19.941Z,15.1
2019-05-20T17:24:23.296Z,15
2019-05-20T17:29:24.837Z,14.9
2019-05-20T17:34:27.238Z,14.8
2019-05-20T17:39:29.691Z,14.7
2019-05-20T17:44:32.253Z,14.6
2019-05-20T17:49:34.574Z,14.5
2019-05-20T17:54:37.010Z,14.5
2019-05-20T17:59:39.450Z,14.4
2019-05-20T18:04:41.877Z,14.4
2019-05-20T18:09:44.417Z,14.4
2019-05-20T18:14:46.803Z,14.3
2019-05-20T18:19:49.300Z,14.3
2019-05-20T18:24:51.761Z,14.2
2019-05-20T18:29:54.379Z,14.2
2019-05-20T18:34:56.565Z,14.1
2019-05-20T18:40:12.702Z,14
2019-05-20T18:45:01.430Z,14
2019-05-20T18:50:03.853Z,13.9
2019-05-20T18:55:06.309Z,13.9
2019-05-20T19:00:08.730Z,13.8
2019-05-20T19:05:11.194Z,13.8
2019-05-20T19:10:13.710Z,13.8
2019-05-20T19:15:16.063Z,13.7
2019-05-20T19:20:18.510Z,13.7
2019-05-20T19:25:20.960Z,13.6
2019-05-20T19:30:23.454Z,13.6
2019-05-20T19:35:26.461Z,13.5
2019-05-20T19:40:28.343Z,13.5
2019-05-20T19:45:30.766Z,13.4
2019-05-20T19:50:33.136Z,13.3
2019-05-20T19:55:35.589Z,13.2
2019-05-20T20:00:38.046Z,13.1
2019-05-20T20:05:40.473Z,13.1
2019-05-20T20:10:42.904Z,13.1
2019-05-20T20:15:45.353Z,13.1
2019-05-20T20:20:48.102Z,13
2019-05-20T20:25:50.273Z,13
2019-05-20T20:30:52.741Z,12.9
2019-05-20T20:35:55.093Z,12.8
2019-05-20T20:40:57.534Z,12.8
2019-05-20T20:45:59.976Z,12.7
2019-05-20T20:51:02.472Z,12.7
2019-05-20T20:56:04.868Z,12.6
2019-05-20T21:01:07.308Z,12.6
2019-05-20T21:06:09.736Z,12.6
2019-05-20T21:11:12.172Z,12.7
2019-05-20T21:16:14.625Z,12.7
2019-05-20T21:21:17.242Z,12.7
2019-05-20T21:26:19.494Z,12.7
2019-05-20T21:31:21.934Z,12.7
2019-05-20T21:36:24.375Z,12.6
2019-05-20T21:41:26.868Z,12.5
2019-05-20T21:46:29.266Z,12.5
2019-05-20T21:51:31.711Z,12.5
2019-05-20T21:56:34.152Z,12.3
2019-05-20T22:01:36.633Z,12.2
2019-05-20T22:06:39.347Z,12.1
2019-05-20T22:11:41.468Z,12
2019-05-20T22:16:43.944Z,11.9
2019-05-20T22:21:46.356Z,11.8
2019-05-20T22:26:48.795Z,11.8
2019-05-20T22:31:51.245Z,11.7
2019-05-20T22:36:53.696Z,11.8
2019-05-20T22:41:56.102Z,11.9
2019-05-20T22:46:58.539Z,11.9
2019-05-20T22:52:01.045Z,11.9
2019-05-20T22:57:03.445Z,12
2019-05-20T23:02:05.918Z,12
2019-05-20T23:07:08.360Z,12.1
2019-05-20T23:12:11.008Z,12.1
2019-05-20T23:17:13.201Z,12.1
2019-05-20T23:22:15.666Z,12.1
2019-05-20T23:27:18.103Z,12
2019-05-20T23:32:20.543Z,11.9
2019-05-20T23:37:22.995Z,11.7
2019-05-20T23:42:25.420Z,11.7
2019-05-20T23:47:27.839Z,11.7
2019-05-20T23:52:30.271Z,11.7
2019-05-20T23:57:32.732Z,11.6
